Time;durP1;ratioP1;P1;durP2;ratioP2;P2;SDS_P1;SDS_P2;PMS_P1;PMS_P2;Temp;Humidity;BMP_temperature;BMP_pressure;BME280_temperature;BME280_humidity;BME280_pressure;Samples;Min_cycle;Max_cycle;Signal;HPM_P1;HPM_P2
2023/10/27 00:00:07;;;;;;;15.20;8.80;;;;;;;;;;4964829;28;20038;-63
2023/10/27 00:02:38;;;;;;;15.43;8.43;;;;;;;;;;4965153;28;20388;-64
2023/10/27 00:05:04;;;;;;;16.33;8.85;;;;;;;;;;4966803;28;20050;-63
2023/10/27 00:07:29;;;;;;;15.48;9.13;;;;;;;;;;4966776;28;20074;-63
2023/10/27 00:09:55;;;;;;;17.85;8.80;;;;;;;;;;4965809;28;20031;-63
2023/10/27 00:12:20;;;;;;;15.25;8.63;;;;;;;;;;4963952;28;20082;-63
2023/10/27 00:14:46;;;;;;;15.38;8.77;;;;;;;;;;4966697;28;20018;-64
2023/10/27 00:17:11;;;;;;;14.20;8.45;;;;;;;;;;4965332;28;20019;-64
2023/10/27 00:19:36;;;;;;;18.30;10.68;;;;;;;;;;4965712;28;20464;-63
2023/10/27 00:22:02;;;;;;;18.40;11.60;;;;;;;;;;4966602;28;20015;-63
2023/10/27 00:24:27;;;;;;;20.98;10.60;;;;;;;;;;4964642;28;20491;-63
2023/10/27 00:26:53;;;;;;;16.90;8.98;;;;;;;;;;4966124;28;20011;-64
2023/10/27 00:29:18;;;;;;;14.63;7.85;;;;;;;;;;4966223;28;20046;-63
2023/10/27 00:31:44;;;;;;;12.80;7.72;;;;;;;;;;4966479;28;20058;-63
2023/10/27 00:34:09;;;;;;;13.35;7.50;;;;;;;;;;4964646;28;20016;-63
2023/10/27 00:36:34;;;;;;;10.55;6.68;;;;;;;;;;4965672;28;20381;-64
2023/10/27 00:39:00;;;;;;;11.82;7.10;;;;;;;;;;4965945;28;20487;-63
2023/10/27 00:41:25;;;;;;;12.30;6.90;;;;;;;;;;4964281;28;20540;-63
2023/10/27 00:43:50;;;;;;;11.05;6.70;;;;;;;;;;4967786;28;20035;-64
2023/10/27 00:46:16;;;;;;;11.07;6.50;;;;;;;;;;4965231;28;20022;-63
2023/10/27 00:48:42;;;;;;;12.38;6.85;;;;;;;;;;4965880;28;20042;-64
2023/10/27 00:51:09;;;;;;;11.60;6.38;;;;;;;;;;4964150;28;20154;-64
2023/10/27 00:53:35;;;;;;;13.95;6.80;;;;;;;;;;4965294;28;20022;-64
2023/10/27 00:56:01;;;;;;;11.40;6.78;;;;;;;;;;4965589;28;20106;-64
2023/10/27 00:58:27;;;;;;;13.13;7.07;;;;;;;;;;4963644;28;20022;-63
2023/10/27 01:00:56;;;;;;;15.27;7.53;;;;;;;;;;4965438;28;20031;-63
2023/10/27 01:03:22;;;;;;;13.45;6.68;;;;;;;;;;4965608;28;20066;-64
2023/10/27 01:05:48;;;;;;;9.45;6.60;;;;;;;;;;4966126;28;20027;-63
2023/10/27 01:08:13;;;;;;;10.80;6.63;;;;;;;;;;4965264;28;20015;-64
2023/10/27 01:10:39;;;;;;;12.00;7.10;;;;;;;;;;4964940;28;20066;-63
2023/10/27 01:13:05;;;;;;;10.63;6.50;;;;;;;;;;4963615;28;20019;-63
2023/10/27 01:15:30;;;;;;;11.18;6.68;;;;;;;;;;4965601;28;20031;-64
2023/10/27 01:17:56;;;;;;;12.90;6.30;;;;;;;;;;4964637;28;20015;-63
2023/10/27 01:20:22;;;;;;;10.63;5.97;;;;;;;;;;4963852;28;20035;-64
2023/10/27 01:22:48;;;;;;;8.85;5.90;;;;;;;;;;4965673;28;20029;-63
2023/10/27 01:25:15;;;;;;;11.18;6.22;;;;;;;;;;4964162;28;20070;-63
2023/10/27 01:27:41;;;;;;;10.27;6.20;;;;;;;;;;4963930;28;20461;-64
2023/10/27 01:30:08;;;;;;;8.90;5.90;;;;;;;;;;4965445;28;20023;-63
2023/10/27 01:32:34;;;;;;;11.00;5.70;;;;;;;;;;4964805;28;20661;-64
2023/10/27 01:35:00;;;;;;;11.07;5.97;;;;;;;;;;4964950;28;20165;-64
2023/10/27 01:37:25;;;;;;;8.50;5.60;;;;;;;;;;4963316;28;20062;-63
2023/10/27 01:39:51;;;;;;;11.57;6.05;;;;;;;;;;4965213;28;20030;-64
2023/10/27 01:42:16;;;;;;;11.27;6.10;;;;;;;;;;4963916;28;20507;-64
2023/10/27 01:44:41;;;;;;;12.00;5.75;;;;;;;;;;4966890;28;20030;-66
2023/10/27 01:47:07;;;;;;;13.30;5.68;;;;;;;;;;4963250;28;20099;-65
2023/10/27 01:49:32;;;;;;;9.18;6.28;;;;;;;;;;4964723;28;20030;-63
2023/10/27 01:51:57;;;;;;;9.98;6.13;;;;;;;;;;4964211;28;20027;-63
2023/10/27 01:54:23;;;;;;;12.10;6.05;;;;;;;;;;4962143;28;20058;-65
2023/10/27 01:56:48;;;;;;;12.43;6.93;;;;;;;;;;4964829;28;20375;-64
2023/10/27 01:59:14;;;;;;;11.80;6.78;;;;;;;;;;4963613;28;20098;-64
2023/10/27 02:01:39;;;;;;;10.25;6.95;;;;;;;;;;4963766;28;20058;-65
2023/10/27 02:04:05;;;;;;;10.90;7.18;;;;;;;;;;4967092;28;20039;-64
2023/10/27 02:06:30;;;;;;;12.65;7.20;;;;;;;;;;4963116;28;20516;-65
2023/10/27 02:08:56;;;;;;;11.13;7.10;;;;;;;;;;4964136;28;20022;-64
2023/10/27 02:11:21;;;;;;;16.10;8.15;;;;;;;;;;4963643;28;20047;-65
2023/10/27 02:13:47;;;;;;;12.60;7.97;;;;;;;;;;4962974;28;20019;-66
2023/10/27 02:16:12;;;;;;;16.13;7.70;;;;;;;;;;4964538;28;20019;-65
2023/10/27 02:18:37;;;;;;;14.15;8.70;;;;;;;;;;4963963;28;20492;-65
2023/10/27 02:21:04;;;;;;;17.50;8.40;;;;;;;;;;4963137;28;20099;-65
2023/10/27 02:23:29;;;;;;;12.48;7.70;;;;;;;;;;4963482;28;20121;-65
2023/10/27 02:25:55;;;;;;;12.75;8.38;;;;;;;;;;4963315;28;20098;-65
2023/10/27 02:28:20;;;;;;;16.33;8.82;;;;;;;;;;4965483;28;20027;-65
2023/10/27 02:30:46;;;;;;;11.45;7.45;;;;;;;;;;4962624;28;20034;-65
2023/10/27 02:33:13;;;;;;;16.00;7.82;;;;;;;;;;4964675;28;20018;-64
2023/10/27 02:35:38;;;;;;;14.40;8.05;;;;;;;;;;4963765;28;20031;-64
2023/10/27 02:38:04;;;;;;;10.95;7.40;;;;;;;;;;4962918;28;20031;-65
2023/10/27 02:40:30;;;;;;;11.43;7.10;;;;;;;;;;4964336;28;20027;-65
2023/10/27 02:42:56;;;;;;;10.85;7.28;;;;;;;;;;4964837;28;20045;-64
2023/10/27 02:45:21;;;;;;;11.82;6.90;;;;;;;;;;4965043;28;20461;-63
2023/10/27 02:47:47;;;;;;;10.57;6.93;;;;;;;;;;4962600;28;20380;-64
2023/10/27 02:50:13;;;;;;;11.63;7.07;;;;;;;;;;4964081;28;20027;-63
2023/10/27 02:52:38;;;;;;;14.02;7.63;;;;;;;;;;4963547;28;20098;-63
2023/10/27 02:55:05;;;;;;;14.13;7.60;;;;;;;;;;4962572;28;20413;-63
2023/10/27 02:57:30;;;;;;;10.30;6.57;;;;;;;;;;4964502;28;20046;-64
2023/10/27 02:59:57;;;;;;;13.65;6.97;;;;;;;;;;4945803;28;20066;-63
2023/10/27 03:02:23;;;;;;;11.15;7.32;;;;;;;;;;4962885;28;20110;-64
2023/10/27 03:04:49;;;;;;;20.25;11.95;;;;;;;;;;4966742;28;20049;-63
2023/10/27 03:07:16;;;;;;;13.73;7.93;;;;;;;;;;4962983;28;20477;-64
2023/10/27 03:09:41;;;;;;;13.07;7.60;;;;;;;;;;4962655;28;20122;-63
2023/10/27 03:12:07;;;;;;;13.02;7.63;;;;;;;;;;4964273;28;20054;-63
2023/10/27 03:14:33;;;;;;;11.93;7.95;;;;;;;;;;4962534;28;20496;-64
2023/10/27 03:16:58;;;;;;;13.10;8.00;;;;;;;;;;4961908;28;20027;-64
2023/10/27 03:19:23;;;;;;;12.98;7.75;;;;;;;;;;4964160;28;20024;-63
2023/10/27 03:21:49;;;;;;;11.48;7.80;;;;;;;;;;4963040;28;20106;-62
2023/10/27 03:24:14;;;;;;;13.70;8.35;;;;;;;;;;4967138;28;20061;-63
2023/10/27 03:26:40;;;;;;;12.57;8.02;;;;;;;;;;4967082;28;20023;-63
2023/10/27 03:29:05;;;;;;;10.43;7.47;;;;;;;;;;4968331;28;20026;-63
2023/10/27 03:31:31;;;;;;;13.43;7.78;;;;;;;;;;4965545;28;20887;-63
2023/10/27 03:33:56;;;;;;;9.88;7.32;;;;;;;;;;4966934;28;20021;-62
2023/10/27 03:36:22;;;;;;;12.00;7.63;;;;;;;;;;4967093;28;20126;-63
2023/10/27 03:38:48;;;;;;;13.20;8.05;;;;;;;;;;4965247;28;20043;-62
2023/10/27 03:41:13;;;;;;;16.65;7.57;;;;;;;;;;4967035;28;20022;-62
2023/10/27 03:43:39;;;;;;;15.95;7.85;;;;;;;;;;4968749;28;20018;-64
2023/10/27 03:46:07;;;;;;;15.13;8.02;;;;;;;;;;4967097;28;20564;-63
2023/10/27 03:48:34;;;;;;;14.35;7.65;;;;;;;;;;4965538;28;20058;-63
2023/10/27 03:51:03;;;;;;;10.85;7.10;;;;;;;;;;4966330;28;20023;-62
2023/10/27 03:53:29;;;;;;;11.97;7.67;;;;;;;;;;4967011;28;20110;-63
2023/10/27 03:55:54;;;;;;;12.43;7.85;;;;;;;;;;4965699;28;20062;-65
2023/10/27 03:58:19;;;;;;;13.98;7.45;;;;;;;;;;4966059;28;20023;-63
2023/10/27 04:00:45;;;;;;;12.38;7.80;;;;;;;;;;4966972;28;20027;-63
2023/10/27 04:03:11;;;;;;;13.70;7.93;;;;;;;;;;4965019;28;20358;-62
2023/10/27 04:05:37;;;;;;;12.15;7.57;;;;;;;;;;4967728;28;20020;-62
2023/10/27 04:08:04;;;;;;;13.48;7.40;;;;;;;;;;4965310;28;20077;-63
2023/10/27 04:10:32;;;;;;;13.30;8.52;;;;;;;;;;4966710;28;20031;-62
2023/10/27 04:12:58;;;;;;;10.70;7.78;;;;;;;;;;4965851;28;20038;-63
2023/10/27 04:15:23;;;;;;;13.30;7.47;;;;;;;;;;4965202;28;20018;-63
2023/10/27 04:17:49;;;;;;;14.32;8.15;;;;;;;;;;4966894;28;20027;-63
2023/10/27 04:20:14;;;;;;;12.20;8.18;;;;;;;;;;4965065;28;20023;-63
2023/10/27 04:22:40;;;;;;;15.60;8.77;;;;;;;;;;4965427;28;20503;-63
2023/10/27 04:25:05;;;;;;;12.82;8.13;;;;;;;;;;4966432;28;20023;-63
2023/10/27 04:27:31;;;;;;;12.38;7.90;;;;;;;;;;4964473;28;20106;-63
2023/10/27 04:29:57;;;;;;;10.80;7.20;;;;;;;;;;4967232;28;20027;-63
2023/10/27 04:32:24;;;;;;;11.40;7.50;;;;;;;;;;4965759;28;20030;-63
2023/10/27 04:34:50;;;;;;;13.57;8.20;;;;;;;;;;4963875;28;20023;-63
2023/10/27 04:37:15;;;;;;;13.73;8.20;;;;;;;;;;4965733;28;20074;-64
2023/10/27 04:39:41;;;;;;;12.43;8.07;;;;;;;;;;4965515;28;20473;-63
2023/10/27 04:42:07;;;;;;;16.00;9.15;;;;;;;;;;4964477;28;20027;-63
2023/10/27 04:44:33;;;;;;;12.77;8.25;;;;;;;;;;4966679;28;20046;-64
2023/10/27 04:46:58;;;;;;;12.75;7.75;;;;;;;;;;4965381;28;20031;-63
2023/10/27 04:49:26;;;;;;;12.40;8.35;;;;;;;;;;4965494;28;20027;-63
2023/10/27 04:51:51;;;;;;;21.45;8.43;;;;;;;;;;4964184;28;20035;-64
2023/10/27 04:54:17;;;;;;;14.57;9.20;;;;;;;;;;4965461;28;20026;-63
2023/10/27 04:56:43;;;;;;;16.70;9.82;;;;;;;;;;4965429;28;20027;-62
2023/10/27 04:59:09;;;;;;;13.70;8.80;;;;;;;;;;4964084;28;20023;-63
2023/10/27 05:01:34;;;;;;;15.77;9.60;;;;;;;;;;4965494;28;20033;-63
2023/10/27 05:04:00;;;;;;;16.63;10.75;;;;;;;;;;4965306;28;20047;-65
2023/10/27 05:06:26;;;;;;;15.75;10.52;;;;;;;;;;4965858;28;20468;-63
2023/10/27 05:08:51;;;;;;;15.13;9.15;;;;;;;;;;4958048;28;20031;-63
2023/10/27 05:11:17;;;;;;;17.23;10.25;;;;;;;;;;4955611;28;20019;-65
2023/10/27 05:13:43;;;;;;;15.07;9.32;;;;;;;;;;4955619;28;20037;-62
2023/10/27 05:16:09;;;;;;;15.40;9.80;;;;;;;;;;4955499;28;20476;-63
2023/10/27 05:18:34;;;;;;;18.15;10.52;;;;;;;;;;4955299;28;20035;-62
2023/10/27 05:21:00;;;;;;;16.08;10.20;;;;;;;;;;4955398;28;20539;-62
2023/10/27 05:23:25;;;;;;;20.23;11.88;;;;;;;;;;4955235;28;20035;-63
2023/10/27 05:25:52;;;;;;;35.65;18.95;;;;;;;;;;4955366;28;20023;-62
2023/10/27 05:28:18;;;;;;;41.42;22.50;;;;;;;;;;4958149;28;20360;-63
2023/10/27 05:30:46;;;;;;;34.05;17.52;;;;;;;;;;4974353;28;20031;-63
2023/10/27 05:33:12;;;;;;;24.33;13.88;;;;;;;;;;4974210;28;20460;-63
2023/10/27 05:35:38;;;;;;;23.48;12.93;;;;;;;;;;4974536;28;20038;-63
2023/10/27 05:38:03;;;;;;;22.88;13.27;;;;;;;;;;4974514;28;20027;-62
2023/10/27 05:40:32;;;;;;;22.77;12.82;;;;;;;;;;4974392;28;20527;-62
2023/10/27 05:42:58;;;;;;;22.60;12.48;;;;;;;;;;4974189;28;20105;-64
2023/10/27 05:45:23;;;;;;;21.58;12.52;;;;;;;;;;4972935;28;20105;-63
2023/10/27 05:47:48;;;;;;;20.65;12.18;;;;;;;;;;4974299;28;20030;-63
2023/10/27 05:50:14;;;;;;;15.18;9.40;;;;;;;;;;4974125;28;20031;-63
2023/10/27 05:52:39;;;;;;;17.00;9.65;;;;;;;;;;4974303;28;20023;-63
2023/10/27 05:55:05;;;;;;;14.98;9.27;;;;;;;;;;4974117;28;20045;-63
2023/10/27 05:57:32;;;;;;;15.15;9.43;;;;;;;;;;4974256;28;20053;-62
2023/10/27 05:59:57;;;;;;;15.13;9.52;;;;;;;;;;4974047;28;20031;-63
2023/10/27 06:02:23;;;;;;;17.33;10.13;;;;;;;;;;4973833;28;20038;-63
2023/10/27 06:04:48;;;;;;;25.95;13.15;;;;;;;;;;4973750;28;20050;-63
2023/10/27 06:07:15;;;;;;;118.05;32.28;;;;;;;;;;4974073;28;20027;-63
2023/10/27 06:09:41;;;;;;;84.45;25.23;;;;;;;;;;4973794;28;20519;-63
2023/10/27 06:12:08;;;;;;;42.75;17.48;;;;;;;;;;4974012;28;20051;-62
2023/10/27 06:14:34;;;;;;;25.45;12.40;;;;;;;;;;4973933;28;20046;-62
2023/10/27 06:16:59;;;;;;;23.65;12.50;;;;;;;;;;4973683;28;20031;-62
2023/10/27 06:19:25;;;;;;;18.50;11.23;;;;;;;;;;4972557;28;20031;-62
2023/10/27 06:21:50;;;;;;;19.42;10.15;;;;;;;;;;4973522;28;20031;-63
2023/10/27 06:24:16;;;;;;;18.55;10.05;;;;;;;;;;4973744;28;20058;-62
2023/10/27 06:26:42;;;;;;;16.52;10.23;;;;;;;;;;4973638;28;20487;-62
2023/10/27 06:29:07;;;;;;;18.40;10.05;;;;;;;;;;4973533;28;20031;-63
2023/10/27 06:31:33;;;;;;;16.60;9.80;;;;;;;;;;4973456;28;20023;-63
2023/10/27 06:33:58;;;;;;;17.63;10.38;;;;;;;;;;4973706;28;20023;-62
2023/10/27 06:36:25;;;;;;;19.17;10.18;;;;;;;;;;4973855;28;20027;-63
2023/10/27 06:38:51;;;;;;;18.25;9.95;;;;;;;;;;4973687;28;20035;-62
2023/10/27 06:41:16;;;;;;;23.65;11.30;;;;;;;;;;4973680;28;20404;-62
2023/10/27 06:43:42;;;;;;;26.63;12.23;;;;;;;;;;4973034;28;20018;-62
2023/10/27 06:46:08;;;;;;;24.25;10.55;;;;;;;;;;4972876;28;20031;-62
2023/10/27 06:48:34;;;;;;;27.70;11.35;;;;;;;;;;4973580;28;20022;-62
2023/10/27 06:50:59;;;;;;;19.17;9.75;;;;;;;;;;4969085;28;20026;-63
2023/10/27 06:53:25;;;;;;;19.67;10.50;;;;;;;;;;4979388;28;20119;-63
2023/10/27 06:55:50;;;;;;;18.95;9.90;;;;;;;;;;4972863;28;20477;-64
2023/10/27 06:58:15;;;;;;;17.92;9.73;;;;;;;;;;4985221;28;20467;-62
2023/10/27 07:00:41;;;;;;;17.10;9.70;;;;;;;;;;4976907;28;20038;-63
2023/10/27 07:03:06;;;;;;;18.00;10.18;;;;;;;;;;4980348;28;20429;-63
2023/10/27 07:05:32;;;;;;;16.75;9.68;;;;;;;;;;4976955;28;20039;-63
2023/10/27 07:07:57;;;;;;;14.82;9.15;;;;;;;;;;4976860;28;20027;-63
2023/10/27 07:10:23;;;;;;;14.50;8.35;;;;;;;;;;4976360;28;20046;-63
2023/10/27 07:12:48;;;;;;;15.70;9.23;;;;;;;;;;4976539;28;20506;-63
2023/10/27 07:15:14;;;;;;;14.65;8.95;;;;;;;;;;4980778;28;20018;-63
2023/10/27 07:17:41;;;;;;;14.10;8.60;;;;;;;;;;4976640;28;20026;-63
2023/10/27 07:20:07;;;;;;;19.60;8.80;;;;;;;;;;4976796;28;20030;-63
2023/10/27 07:22:34;;;;;;;18.17;10.45;;;;;;;;;;4976651;28;20438;-63
2023/10/27 07:25:00;;;;;;;17.17;9.70;;;;;;;;;;4976808;28;20027;-63
2023/10/27 07:27:26;;;;;;;15.60;9.23;;;;;;;;;;4976679;28;20047;-63
2023/10/27 07:29:52;;;;;;;15.00;8.27;;;;;;;;;;4976337;28;20026;-63
2023/10/27 07:32:17;;;;;;;13.50;8.65;;;;;;;;;;4976489;28;20050;-64
2023/10/27 07:34:43;;;;;;;13.15;7.75;;;;;;;;;;4976669;28;20023;-64
2023/10/27 07:37:08;;;;;;;16.45;8.20;;;;;;;;;;4976425;28;20491;-64
2023/10/27 07:39:34;;;;;;;13.95;8.85;;;;;;;;;;4976429;28;20027;-64
2023/10/27 07:41:59;;;;;;;14.23;8.52;;;;;;;;;;4976465;28;20495;-63
2023/10/27 07:44:25;;;;;;;13.13;8.75;;;;;;;;;;4965450;28;20046;-64
2023/10/27 07:46:50;;;;;;;13.20;9.30;;;;;;;;;;4957054;28;20035;-64
2023/10/27 07:49:16;;;;;;;14.20;9.50;;;;;;;;;;4974447;28;20428;-63
2023/10/27 07:51:41;;;;;;;14.80;9.77;;;;;;;;;;4976311;28;20034;-64
2023/10/27 07:54:07;;;;;;;17.33;10.43;;;;;;;;;;4976103;28;20034;-64
2023/10/27 07:56:35;;;;;;;17.20;10.07;;;;;;;;;;4975932;28;20070;-64
2023/10/27 07:59:01;;;;;;;15.68;10.88;;;;;;;;;;4975717;28;20035;-63
2023/10/27 08:01:26;;;;;;;17.20;10.07;;;;;;;;;;4975829;28;20030;-63
2023/10/27 08:03:52;;;;;;;18.13;10.02;;;;;;;;;;4975538;28;20043;-63
2023/10/27 08:06:17;;;;;;;18.60;10.00;;;;;;;;;;4975875;28;20397;-64
2023/10/27 08:08:42;;;;;;;17.88;10.13;;;;;;;;;;4974824;28;20027;-64
2023/10/27 08:11:14;;;;;;;17.95;9.77;;;;;;;;;;4975610;28;20106;-64
2023/10/27 08:13:40;;;;;;;16.85;10.68;;;;;;;;;;4975720;28;20030;-64
2023/10/27 08:16:05;;;;;;;20.63;11.30;;;;;;;;;;4975713;28;20389;-64
2023/10/27 08:18:31;;;;;;;19.20;10.05;;;;;;;;;;4975576;28;20038;-64
2023/10/27 08:20:56;;;;;;;20.65;11.00;;;;;;;;;;4975540;28;20417;-64
2023/10/27 08:23:22;;;;;;;21.98;10.85;;;;;;;;;;4980555;28;20041;-64
2023/10/27 08:25:51;;;;;;;18.30;9.18;;;;;;;;;;4975644;28;20298;-63
2023/10/27 08:28:20;;;;;;;20.83;11.83;;;;;;;;;;4975204;28;20037;-64
2023/10/27 08:30:46;;;;;;;19.52;11.32;;;;;;;;;;4975381;28;20038;-64
2023/10/27 08:33:14;;;;;;;17.85;9.57;;;;;;;;;;4976059;28;20023;-64
2023/10/27 08:35:39;;;;;;;27.83;11.73;;;;;;;;;;4975376;28;20027;-63
2023/10/27 08:38:05;;;;;;;22.25;12.20;;;;;;;;;;4975277;28;20388;-64
2023/10/27 08:40:31;;;;;;;20.98;11.88;;;;;;;;;;4975428;28;20609;-63
2023/10/27 08:42:56;;;;;;;26.40;12.43;;;;;;;;;;4975693;28;20026;-62
2023/10/27 08:45:23;;;;;;;20.83;11.88;;;;;;;;;;4956904;28;20437;-63
2023/10/27 08:47:49;;;;;;;19.38;10.73;;;;;;;;;;4974736;28;20113;-62
2023/10/27 08:50:14;;;;;;;16.10;9.82;;;;;;;;;;4974975;28;20030;-63
2023/10/27 08:52:40;;;;;;;16.80;10.50;;;;;;;;;;4974996;28;20033;-62
2023/10/27 08:55:10;;;;;;;17.25;10.70;;;;;;;;;;4975353;28;20030;-63
2023/10/27 08:57:36;;;;;;;;;;;;;;;;;;4975405;28;20030;-63
2023/10/27 09:00:03;;;;;;;14.80;10.30;;;;;;;;;;4975351;28;20056;-63
2023/10/27 09:02:30;;;;;;;13.32;10.02;;;;;;;;;;4974904;28;20023;-63
2023/10/27 09:05:09;;;;;;;13.55;9.60;;;;;;;;;;4974436;28;20132;-63
2023/10/27 09:07:36;;;;;;;13.68;9.20;;;;;;;;;;4973555;28;20050;-63
2023/10/27 09:10:03;;;;;;;13.30;8.77;;;;;;;;;;4974604;28;20039;-63
2023/10/27 09:12:30;;;;;;;11.10;8.13;;;;;;;;;;4974591;28;20110;-63
2023/10/27 09:15:04;;;;;;;12.07;7.95;;;;;;;;;;4974516;28;20031;-63
2023/10/27 09:17:30;;;;;;;18.35;8.85;;;;;;;;;;4974610;28;20109;-63
2023/10/27 09:20:04;;;;;;;14.73;8.02;;;;;;;;;;4974196;28;20150;-63
2023/10/27 09:22:29;;;;;;;14.05;8.35;;;;;;;;;;4974521;28;20023;-63
2023/10/27 09:25:12;;;;;;;9.63;7.00;;;;;;;;;;4974163;28;20421;-62
2023/10/27 09:27:42;;;;;;;9.02;6.20;;;;;;;;;;4974591;28;20050;-63
2023/10/27 09:30:08;;;;;;;9.40;6.37;;;;;;;;;;4974196;28;20034;-62
2023/10/27 09:32:34;;;;;;;10.48;5.95;;;;;;;;;;4975002;28;20063;-62
2023/10/27 09:35:17;;;;;;;9.98;7.07;;;;;;;;;;4974308;28;20165;-63
2023/10/27 09:37:43;;;;;;;11.38;7.32;;;;;;;;;;4974223;28;20030;-62
2023/10/27 09:40:11;;;;;;;8.75;5.68;;;;;;;;;;4973826;28;20489;-62
2023/10/27 09:42:38;;;;;;;9.38;6.28;;;;;;;;;;4973887;28;20113;-62
2023/10/27 09:45:09;;;;;;;13.40;7.00;;;;;;;;;;4973543;28;20023;-63
2023/10/27 09:47:50;;;;;;;12.63;7.47;;;;;;;;;;4973972;28;20085;-63
2023/10/27 09:50:23;;;;;;;13.43;8.80;;;;;;;;;;4954803;28;20090;-63
2023/10/27 09:52:49;;;;;;;16.08;9.73;;;;;;;;;;4954724;28;20019;-63
2023/10/27 09:55:18;;;;;;;15.90;9.48;;;;;;;;;;4954530;28;20090;-63
2023/10/27 09:57:45;;;;;;;15.30;9.52;;;;;;;;;;4954694;28;20035;-63
2023/10/27 10:00:16;;;;;;;14.25;10.30;;;;;;;;;;4957143;28;20074;-63
2023/10/27 10:02:42;;;;;;;20.45;10.38;;;;;;;;;;4973849;28;20481;-63
2023/10/27 10:05:09;;;;;;;15.48;9.20;;;;;;;;;;4973404;28;20085;-63
2023/10/27 10:07:42;;;;;;;12.45;8.32;;;;;;;;;;4973855;28;20472;-63
2023/10/27 10:10:26;;;;;;;12.30;7.75;;;;;;;;;;4973645;28;20045;-63
2023/10/27 10:13:14;;;;;;;14.18;8.88;;;;;;;;;;4966043;28;20073;-63
2023/10/27 10:15:45;;;;;;;21.77;9.60;;;;;;;;;;4964641;28;20061;-63
2023/10/27 10:18:19;;;;;;;15.07;8.38;;;;;;;;;;4963573;28;20023;-63
2023/10/27 10:20:45;;;;;;;18.02;9.52;;;;;;;;;;4962806;28;20034;-63
2023/10/27 10:23:14;;;;;;;15.95;9.57;;;;;;;;;;4963276;28;20404;-63
2023/10/27 10:25:53;;;;;;;17.55;9.80;;;;;;;;;;4964450;28;20023;-63
2023/10/27 10:28:18;;;;;;;13.07;8.55;;;;;;;;;;4964616;28;20408;-64
2023/10/27 10:30:45;;;;;;;14.55;9.70;;;;;;;;;;4962606;28;20038;-64
2023/10/27 10:33:16;;;;;;;15.55;8.77;;;;;;;;;;4968627;28;20580;-64
2023/10/27 10:35:43;;;;;;;16.48;9.38;;;;;;;;;;4966372;28;20472;-64
2023/10/27 10:38:23;;;;;;;13.93;8.77;;;;;;;;;;4967355;28;20023;-64
2023/10/27 10:40:56;;;;;;;;;;;;;;;;;;4967406;28;20035;-64
2023/10/27 10:43:24;;;;;;;15.70;8.30;;;;;;;;;;4967467;28;20009;-64
2023/10/27 10:45:53;;;;;;;16.00;8.50;;;;;;;;;;4967096;28;20037;-64
2023/10/27 10:48:19;;;;;;;12.63;7.82;;;;;;;;;;4966165;28;20050;-64
2023/10/27 10:50:45;;;;;;;15.80;8.32;;;;;;;;;;4966154;28;20036;-64
2023/10/27 10:53:17;;;;;;;15.05;9.27;;;;;;;;;;4966971;28;20105;-63
2023/10/27 10:55:47;;;;;;;13.35;8.32;;;;;;;;;;4967961;28;20389;-64
2023/10/27 10:58:30;;;;;;;17.47;8.80;;;;;;;;;;4967097;28;20054;-63
2023/10/27 11:00:56;;;;;;;15.13;8.25;;;;;;;;;;4960329;28;20265;-64
2023/10/27 11:03:24;;;;;;;12.68;7.95;;;;;;;;;;4957539;28;20498;-64
2023/10/27 11:05:57;;;;;;;11.60;8.05;;;;;;;;;;4976358;28;20042;-64
2023/10/27 11:08:27;;;;;;;10.70;6.82;;;;;;;;;;4976625;28;20473;-64
2023/10/27 11:11:00;;;;;;;15.63;7.25;;;;;;;;;;4975591;28;20054;-63
2023/10/27 11:13:26;;;;;;;13.93;7.60;;;;;;;;;;4976894;28;20035;-63
2023/10/27 11:15:52;;;;;;;11.07;7.47;;;;;;;;;;4976614;28;20019;-62
2023/10/27 11:18:18;;;;;;;14.27;7.80;;;;;;;;;;4976709;28;20361;-62
2023/10/27 11:20:44;;;;;;;11.27;7.25;;;;;;;;;;4976680;28;20114;-63
2023/10/27 11:23:10;;;;;;;11.93;6.90;;;;;;;;;;4976511;28;20031;-62
2023/10/27 11:25:35;;;;;;;13.60;6.85;;;;;;;;;;4976418;28;20058;-62
2023/10/27 11:28:21;;;;;;;12.65;7.57;;;;;;;;;;4976312;28;20519;-62
2023/10/27 11:31:00;;;;;;;15.02;7.00;;;;;;;;;;4975927;28;20078;-62
2023/10/27 11:33:25;;;;;;;10.68;6.93;;;;;;;;;;4976837;28;20035;-62
2023/10/27 11:35:51;;;;;;;12.85;6.75;;;;;;;;;;4975894;28;20037;-62
2023/10/27 11:38:16;;;;;;;9.13;6.10;;;;;;;;;;4976171;28;20030;-62
2023/10/27 11:40:42;;;;;;;9.50;6.20;;;;;;;;;;4975965;28;20037;-63
2023/10/27 11:43:07;;;;;;;15.43;6.82;;;;;;;;;;4974450;28;20027;-62
2023/10/27 11:45:34;;;;;;;12.73;6.18;;;;;;;;;;4975585;28;20041;-62
2023/10/27 11:48:00;;;;;;;9.13;5.75;;;;;;;;;;4976119;28;20404;-62
2023/10/27 11:50:25;;;;;;;10.35;5.78;;;;;;;;;;4975733;28;20046;-62
2023/10/27 11:52:50;;;;;;;9.98;6.18;;;;;;;;;;4976130;28;20039;-62
2023/10/27 11:55:17;;;;;;;10.18;6.00;;;;;;;;;;4975813;28;20022;-62
2023/10/27 11:57:43;;;;;;;10.98;5.68;;;;;;;;;;4975806;28;20057;-62
2023/10/27 12:00:09;;;;;;;13.80;6.00;;;;;;;;;;4975769;28;20476;-62
2023/10/27 12:02:34;;;;;;;10.50;5.82;;;;;;;;;;4975842;28;20023;-62
2023/10/27 12:05:00;;;;;;;9.25;5.90;;;;;;;;;;4975392;28;20050;-62
2023/10/27 12:07:25;;;;;;;8.95;5.18;;;;;;;;;;4974528;28;20504;-62
2023/10/27 12:09:51;;;;;;;10.27;5.45;;;;;;;;;;4975615;28;20062;-62
2023/10/27 12:12:16;;;;;;;10.50;5.60;;;;;;;;;;4975649;28;20061;-62
2023/10/27 12:14:41;;;;;;;9.77;5.47;;;;;;;;;;4975764;28;20061;-62
2023/10/27 12:17:07;;;;;;;8.63;6.20;;;;;;;;;;4975812;28;20031;-63
2023/10/27 12:19:32;;;;;;;9.80;6.00;;;;;;;;;;4975501;28;20464;-63
2023/10/27 12:21:58;;;;;;;10.75;6.47;;;;;;;;;;4975673;28;20027;-63
2023/10/27 12:24:24;;;;;;;12.80;6.57;;;;;;;;;;4975774;28;20081;-63
2023/10/27 12:26:49;;;;;;;11.88;7.00;;;;;;;;;;4975479;28;20387;-63
2023/10/27 12:29:15;;;;;;;9.98;5.70;;;;;;;;;;4975185;28;20031;-63
2023/10/27 12:31:41;;;;;;;11.05;6.88;;;;;;;;;;4974126;28;20050;-63
2023/10/27 12:34:10;;;;;;;13.70;7.82;;;;;;;;;;4975947;28;20463;-63
2023/10/27 12:36:35;;;;;;;11.40;5.93;;;;;;;;;;4975353;28;20361;-63
2023/10/27 12:39:02;;;;;;;12.85;5.88;;;;;;;;;;4975451;28;20022;-63
2023/10/27 12:41:27;;;;;;;12.60;5.53;;;;;;;;;;4975060;28;20042;-62
2023/10/27 12:43:52;;;;;;;11.23;5.22;;;;;;;;;;4974701;28;20038;-63
2023/10/27 12:46:18;;;;;;;10.02;5.47;;;;;;;;;;4975223;28;20026;-62
2023/10/27 12:48:43;;;;;;;11.07;6.10;;;;;;;;;;4974984;28;20022;-63
2023/10/27 12:51:09;;;;;;;16.40;7.15;;;;;;;;;;4975021;28;20436;-63
2023/10/27 12:53:34;;;;;;;41.08;15.80;;;;;;;;;;4975165;28;20030;-63
2023/10/27 12:56:00;;;;;;;63.22;22.00;;;;;;;;;;4974495;28;20019;-62
2023/10/27 12:58:25;;;;;;;65.75;23.67;;;;;;;;;;4975109;28;20023;-63
2023/10/27 13:00:52;;;;;;;73.60;23.70;;;;;;;;;;4974849;28;20049;-63
2023/10/27 13:03:17;;;;;;;59.75;21.85;;;;;;;;;;4974673;28;20027;-63
2023/10/27 13:05:44;;;;;;;68.35;22.13;;;;;;;;;;4974773;28;20113;-63
2023/10/27 13:08:10;;;;;;;68.97;20.85;;;;;;;;;;4974901;28;20058;-62
2023/10/27 13:10:36;;;;;;;64.65;20.70;;;;;;;;;;4974501;28;20069;-63
2023/10/27 13:13:01;;;;;;;54.35;18.10;;;;;;;;;;4974634;28;20164;-63
2023/10/27 13:15:34;;;;;;;73.57;20.33;;;;;;;;;;4974209;28;20407;-63
2023/10/27 13:17:59;;;;;;;80.82;21.05;;;;;;;;;;4974176;28;20023;-63
2023/10/27 13:20:25;;;;;;;67.15;20.33;;;;;;;;;;4974365;28;20101;-63
2023/10/27 13:22:52;;;;;;;77.82;20.58;;;;;;;;;;4973716;28;20026;-64
2023/10/27 13:25:18;;;;;;;74.88;20.95;;;;;;;;;;4972948;28;20046;-64
2023/10/27 13:27:45;;;;;;;78.20;21.67;;;;;;;;;;4974252;28;20460;-64
2023/10/27 13:30:10;;;;;;;75.55;20.52;;;;;;;;;;4973847;28;20031;-64
2023/10/27 13:32:36;;;;;;;77.93;22.88;;;;;;;;;;4973878;28;20031;-64
2023/10/27 13:35:01;;;;;;;66.50;21.35;;;;;;;;;;4977603;28;20029;-64
2023/10/27 13:37:27;;;;;;;81.78;20.60;;;;;;;;;;4989122;28;20358;-64
2023/10/27 13:39:55;;;;;;;63.30;20.50;;;;;;;;;;4975077;28;20082;-63
2023/10/27 13:42:20;;;;;;;69.65;21.02;;;;;;;;;;4974019;28;20037;-63
2023/10/27 13:44:45;;;;;;;67.07;21.55;;;;;;;;;;4960151;28;20393;-61
2023/10/27 13:47:12;;;;;;;54.35;19.92;;;;;;;;;;4954501;28;20020;-63
2023/10/27 13:49:38;;;;;;;59.35;20.17;;;;;;;;;;4954599;28;20039;-63
2023/10/27 13:52:04;;;;;;;49.40;18.65;;;;;;;;;;4957969;28;20596;-63
2023/10/27 13:54:29;;;;;;;58.30;19.70;;;;;;;;;;4989543;28;20464;-62
2023/10/27 13:56:58;;;;;;;57.72;20.02;;;;;;;;;;4991891;28;20029;-62
2023/10/27 13:59:24;;;;;;;49.30;17.08;;;;;;;;;;4992435;28;20034;-62
2023/10/27 14:01:49;;;;;;;35.90;13.80;;;;;;;;;;4993411;28;20034;-62
2023/10/27 14:04:15;;;;;;;33.75;13.15;;;;;;;;;;4985106;28;20480;-62
2023/10/27 14:06:46;;;;;;;23.27;10.95;;;;;;;;;;4972520;28;20365;-62
2023/10/27 14:09:14;;;;;;;24.58;10.40;;;;;;;;;;4973423;28;20035;-62
2023/10/27 14:11:42;;;;;;;19.80;9.30;;;;;;;;;;4972222;28;20480;-62
2023/10/27 14:14:09;;;;;;;11.85;5.95;;;;;;;;;;4970853;28;20061;-62
2023/10/27 14:16:35;;;;;;;9.95;5.13;;;;;;;;;;4972102;28;20016;-61
2023/10/27 14:19:01;;;;;;;14.13;4.90;;;;;;;;;;4971963;28;20035;-61
2023/10/27 14:21:27;;;;;;;12.90;5.10;;;;;;;;;;4972374;28;20027;-62
2023/10/27 14:23:52;;;;;;;7.85;3.75;;;;;;;;;;4972925;28;20045;-61